Time,TemperatureF,DewpointF,PressureIn,WindDirection,WindDirectionDegrees,WindSpeedMPH,WindSpeedGustMPH,Humidity,HourlyPrecipIn,Conditions,Clouds,dailyrainin,SoftwareType,DateUTC
2013-06-02 00:01:00,40.9,16.6,29.98,SE,129,4.0,6.0,37,0.00,,BKN001,0.00,VWS V14.00,2013-06-02 06:01:00,
2013-06-02 00:06:00,41.0,16.1,29.98,SE,142,4.0,4.0,36,0.00,,BKN001,0.00,VWS V14.00,2013-06-02 06:06:00,
2013-06-02 00:11:00,40.0,15.2,29.99,SE,141,3.0,4.0,36,0.00,,BKN001,0.00,VWS V14.00,2013-06-02 06:11:00,
2013-06-02 00:16:00,39.6,15.5,29.99,SSE,162,5.0,5.0,37,0.00,,BKN001,0.00,VWS V14.00,2013-06-02 06:16:00,
2013-06-02 00:21:00,39.6,16.1,29.99,SSE,156,2.0,5.0,38,0.00,,BKN001,0.00,VWS V14.00,2013-06-02 06:21:00,
2013-06-02 00:26:00,39.3,16.4,29.99,SSE,159,2.0,5.0,39,0.00,,BKN001,0.00,VWS V14.00,2013-06-02 06:26:00,
2013-06-02 00:31:00,38.7,16.5,29.99,SSW,209,2.0,5.0,40,0.00,,BKN001,0.00,VWS V14.00,2013-06-02 06:31:00,
2013-06-02 00:36:00,38.4,16.8,29.98,SSE,155,1.0,2.0,41,0.00,,BKN001,0.00,VWS V14.00,2013-06-02 06:36:00,
2013-06-02 00:41:00,37.7,16.1,29.98,SSE,151,0.0,2.0,41,0.00,,BKN001,0.00,VWS V14.00,2013-06-02 06:41:00,
2013-06-02 00:46:00,37.4,15.9,29.98,South,177,2.0,4.0,41,0.00,,BKN001,0.00,VWS V14.00,2013-06-02 06:46:00,
2013-06-02 00:51:00,37.1,16.1,29.98,SW,215,0.0,4.0,42,0.00,,BKN001,0.00,VWS V14.00,2013-06-02 06:51:00,
2013-06-02 00:56:00,36.9,16.5,29.98,SSW,197,4.0,4.0,43,0.00,,BKN001,0.00,VWS V14.00,2013-06-02 06:56:00,
2013-06-02 01:01:00,37.1,15.6,29.98,SW,231,2.0,5.0,41,0.00,,BKN001,0.00,VWS V14.00,2013-06-02 07:01:00,
2013-06-02 01:06:00,36.7,15.8,29.98,ESE,108,0.0,1.0,42,0.00,,BKN001,0.00,VWS V14.00,2013-06-02 07:06:00,
2013-06-02 01:11:00,36.2,15.3,29.98,ESE,108,2.0,2.0,42,0.00,,BKN001,0.00,VWS V14.00,2013-06-02 07:11:00,
2013-06-02 01:16:00,35.8,16.0,29.98,WSW,240,1.0,4.0,44,0.00,,BKN001,0.00,VWS V14.00,2013-06-02 07:16:00,
2013-06-02 01:21:00,35.0,16.3,29.98,SSW,207,4.0,4.0,46,0.00,,BKN001,0.00,VWS V14.00,2013-06-02 07:21:00,
2013-06-02 01:26:00,35.1,16.4,29.98,SSW,207,3.0,5.0,46,0.00,,BKN001,0.00,VWS V14.00,2013-06-02 07:26:00,
2013-06-02 01:31:00,35.0,16.3,29.99,SSE,155,3.0,5.0,46,0.00,,BKN001,0.00,VWS V14.00,2013-06-02 07:31:00,
2013-06-02 01:36:00,34.8,15.6,29.98,SSE,148,2.0,4.0,45,0.00,,BKN001,0.00,VWS V14.00,2013-06-02 07:36:00,
2013-06-02 01:41:00,34.5,15.9,29.98,SSW,210,4.0,4.0,46,0.00,,BKN001,0.00,VWS V14.00,2013-06-02 07:41:00,
2013-06-02 01:46:00,34.7,16.5,29.98,SW,215,3.0,8.0,47,0.00,,BKN001,0.00,VWS V14.00,2013-06-02 07:46:00,
2013-06-02 01:51:00,34.4,16.3,29.98,SSW,212,4.0,8.0,47,0.00,,BKN001,0.00,VWS V14.00,2013-06-02 07:51:00,
2013-06-02 01:56:00,34.8,16.1,29.98,SW,215,4.0,8.0,46,0.00,,BKN001,0.00,VWS V14.00,2013-06-02 07:56:00,
2013-06-02 02:01:00,35.1,16.4,29.98,SSW,210,5.0,8.0,46,0.00,,BKN001,0.00,VWS V14.00,2013-06-02 08:01:00,
2013-06-02 02:06:00,35.5,16.3,29.98,SW,228,4.0,8.0,45,0.00,,BKN001,0.00,VWS V14.00,2013-06-02 08:06:00,
2013-06-02 02:11:00,35.0,16.3,29.98,WSW,257,5.0,8.0,46,0.00,,BKN001,0.00,VWS V14.00,2013-06-02 08:11:00,
2013-06-02 02:16:00,34.7,15.6,29.98,SW,232,1.0,8.0,45,0.00,,BKN001,0.00,VWS V14.00,2013-06-02 08:16:00,
2013-06-02 02:21:00,34.6,15.5,29.98,West,263,3.0,8.0,45,0.00,,BKN001,0.00,VWS V14.00,2013-06-02 08:21:00,
2013-06-02 02:26:00,34.5,15.4,29.98,SSW,212,2.0,8.0,45,0.00,,BKN001,0.00,VWS V14.00,2013-06-02 08:26:00,
2013-06-02 02:31:00,34.2,16.6,29.98,WSW,237,5.0,8.0,48,0.00,,BKN001,0.00,VWS V14.00,2013-06-02 08:31:00,
2013-06-02 02:36:00,33.4,17.2,29.98,South,190,2.0,5.0,51,0.00,,BKN001,0.00,VWS V14.00,2013-06-02 08:36:00,
2013-06-02 02:41:00,33.2,17.0,29.98,SW,224,6.0,7.0,51,0.00,,BKN001,0.00,VWS V14.00,2013-06-02 08:41:00,
2013-06-02 02:46:00,32.9,16.8,29.98,SW,224,3.0,7.0,51,0.00,,BKN001,0.00,VWS V14.00,2013-06-02 08:46:00,
2013-06-02 02:51:00,32.9,16.8,29.98,SSW,207,3.0,7.0,51,0.00,,BKN001,0.00,VWS V14.00,2013-06-02 08:51:00,
2013-06-02 02:56:00,32.9,16.3,29.98,SSE,164,2.0,7.0,50,0.00,,BKN001,0.00,VWS V14.00,2013-06-02 08:56:00,
2013-06-02 03:01:00,32.4,16.3,29.98,South,191,3.0,7.0,51,0.00,,BKN001,0.00,VWS V14.00,2013-06-02 09:01:00,
2013-06-02 03:06:00,32.1,16.5,29.98,SSW,201,4.0,5.0,52,0.00,,BKN001,0.00,VWS V14.00,2013-06-02 09:06:00,
2013-06-02 03:11:00,32.1,16.0,29.99,South,173,3.0,5.0,51,0.00,,BKN001,0.00,VWS V14.00,2013-06-02 09:11:00,
2013-06-02 03:16:00,31.6,15.6,29.99,SSE,165,0.0,5.0,51,0.00,,BKN001,0.00,VWS V14.00,2013-06-02 09:16:00,
2013-06-02 03:21:00,31.0,15.9,29.99,SE,135,1.0,5.0,53,0.00,,BKN001,0.00,VWS V14.00,2013-06-02 09:21:00,
2013-06-02 03:26:00,30.8,16.5,29.99,SE,125,1.0,5.0,55,0.00,,BKN001,0.00,VWS V14.00,2013-06-02 09:26:00,
2013-06-02 03:31:00,30.7,16.0,29.99,SE,145,1.0,5.0,54,0.00,,BKN001,0.00,VWS V14.00,2013-06-02 09:31:00,
2013-06-02 03:36:00,30.5,15.9,29.99,SSE,160,2.0,3.0,54,0.00,,BKN001,0.00,VWS V14.00,2013-06-02 09:36:00,
2013-06-02 03:41:00,30.2,16.0,29.99,SSE,168,1.0,3.0,55,0.00,,BKN001,0.00,VWS V14.00,2013-06-02 09:41:00,
2013-06-02 03:46:00,29.7,16.4,29.99,WSW,240,0.0,3.0,57,0.00,,BKN001,0.00,VWS V14.00,2013-06-02 09:46:00,
2013-06-02 03:51:00,29.5,16.6,29.99,West,259,0.0,3.0,58,0.00,,BKN001,0.00,VWS V14.00,2013-06-02 09:51:00,
2013-06-02 03:56:00,29.1,15.8,29.99,SSE,160,2.0,3.0,57,0.00,,BKN001,0.00,VWS V14.00,2013-06-02 09:56:00,
2013-06-02 04:01:00,28.7,15.8,29.99,SSW,203,1.0,3.0,58,0.00,,BKN001,0.00,VWS V14.00,2013-06-02 10:01:00,
2013-06-02 04:06:00,28.5,16.0,29.99,SSW,203,2.0,3.0,59,0.00,,BKN001,0.00,VWS V14.00,2013-06-02 10:06:00,
2013-06-02 04:11:00,28.3,15.4,29.99,SW,226,0.0,3.0,58,0.00,,BKN001,0.00,VWS V14.00,2013-06-02 10:11:00,
2013-06-02 04:16:00,28.1,15.6,29.99,SSE,155,4.0,4.0,59,0.00,,BKN001,0.00,VWS V14.00,2013-06-02 10:16:00,
2013-06-02 04:21:00,28.2,16.1,29.99,SE,145,2.0,4.0,60,0.00,,BKN001,0.00,VWS V14.00,2013-06-02 10:21:00,
2013-06-02 04:26:00,28.1,16.8,29.99,SSW,212,2.0,5.0,62,0.00,,BKN001,0.00,VWS V14.00,2013-06-02 10:26:00,
2013-06-02 04:31:00,28.3,17.0,29.99,SW,221,3.0,6.0,62,0.00,,BKN001,0.00,VWS V14.00,2013-06-02 10:31:00,
2013-06-02 04:36:00,28.1,16.8,30.00,SW,229,3.0,5.0,62,0.00,,BKN001,0.00,VWS V14.00,2013-06-02 10:36:00,
2013-06-02 04:41:00,27.8,16.5,30.00,SW,219,3.0,5.0,62,0.00,,BKN001,0.00,VWS V14.00,2013-06-02 10:41:00,
2013-06-02 04:46:00,27.7,17.1,30.00,SW,236,6.0,6.0,64,0.00,,BKN001,0.00,VWS V14.00,2013-06-02 10:46:00,
2013-06-02 04:51:00,27.8,16.9,30.00,WSW,254,5.0,8.0,63,0.00,,BKN001,0.00,VWS V14.00,2013-06-02 10:51:00,
2013-06-02 04:56:00,28.3,17.0,30.00,SW,220,3.0,8.0,62,0.00,,BKN001,0.00,VWS V14.00,2013-06-02 10:56:00,
2013-06-02 05:01:00,28.1,16.8,30.00,SW,226,3.0,8.0,62,0.00,,BKN001,0.00,VWS V14.00,2013-06-02 11:01:00,
2013-06-02 05:06:00,27.9,17.0,30.00,SSW,207,4.0,6.0,63,0.00,,BKN001,0.00,VWS V14.00,2013-06-02 11:06:00,
2013-06-02 05:10:00,28.1,16.8,30.00,SSW,201,2.0,6.0,62,0.00,,BKN001,0.00,VWS V14.00,2013-06-02 11:10:00,
2013-06-02 05:15:00,27.8,16.9,30.00,SSE,167,4.0,6.0,63,0.00,,BKN001,0.00,VWS V14.00,2013-06-02 11:15:00,
2013-06-02 05:20:00,27.5,16.6,30.00,South,172,3.0,6.0,63,0.00,,BKN001,0.00,VWS V14.00,2013-06-02 11:20:00,
2013-06-02 05:25:00,27.7,16.4,30.00,SW,236,2.0,6.0,62,0.00,,BKN001,0.00,VWS V14.00,2013-06-02 11:25:00,
2013-06-02 05:30:00,27.4,16.8,30.01,WNW,299,0.0,6.0,64,0.00,,BKN001,0.00,VWS V14.00,2013-06-02 11:30:00,
2013-06-02 05:35:00,26.7,16.5,30.01,NE,41,0.0,1.0,65,0.00,,BKN001,0.00,VWS V14.00,2013-06-02 11:35:00,
2013-06-02 05:40:00,26.4,15.9,30.01,SW,215,1.0,3.0,64,0.00,,BKN001,0.00,VWS V14.00,2013-06-02 11:40:00,
2013-06-02 05:45:00,26.2,16.1,30.01,South,178,3.0,3.0,65,0.00,,BKN001,0.00,VWS V14.00,2013-06-02 11:45:00,
2013-06-02 05:50:00,26.2,16.4,30.02,SSE,166,3.0,4.0,66,0.00,,BKN001,0.00,VWS V14.00,2013-06-02 11:50:00,
2013-06-02 05:55:00,26.3,16.5,30.02,South,185,2.0,4.0,66,0.00,,BKN001,0.00,VWS V14.00,2013-06-02 11:55:00,
2013-06-02 06:00:00,26.4,16.6,30.02,WSW,255,1.0,4.0,66,0.00,,BKN001,0.00,VWS V14.00,2013-06-02 12:00:00,
2013-06-02 06:05:00,26.0,16.2,30.02,WSW,254,0.0,0.0,66,0.00,,BKN001,0.00,VWS V14.00,2013-06-02 12:05:00,
2013-06-02 06:10:00,25.5,16.1,30.02,WSW,255,0.0,0.0,67,0.00,,BKN001,0.00,VWS V14.00,2013-06-02 12:10:00,
2013-06-02 06:15:00,25.5,16.4,30.02,SSW,212,3.0,3.0,68,0.00,,BKN001,0.00,VWS V14.00,2013-06-02 12:15:00,
2013-06-02 06:20:00,26.1,16.7,30.02,SE,139,4.0,4.0,67,0.00,,BKN001,0.00,VWS V14.00,2013-06-02 12:20:00,
2013-06-02 06:25:00,26.8,17.0,30.03,SE,143,4.0,4.0,66,0.00,,BKN001,0.00,VWS V14.00,2013-06-02 12:25:00,
2013-06-02 06:30:00,26.9,16.7,30.03,SSE,160,2.0,4.0,65,0.00,,BKN001,0.00,VWS V14.00,2013-06-02 12:30:00,
2013-06-02 06:35:00,26.6,16.8,30.03,SW,235,4.0,4.0,66,0.00,,BKN001,0.00,VWS V14.00,2013-06-02 12:35:00,
2013-06-02 06:40:00,26.2,16.8,30.03,West,276,1.0,4.0,67,0.00,,BKN001,0.00,VWS V14.00,2013-06-02 12:40:00,
2013-06-02 06:45:00,25.9,16.5,30.03,NW,325,0.0,4.0,67,0.00,,BKN001,0.00,VWS V14.00,2013-06-02 12:45:00,
2013-06-02 06:50:00,25.9,16.5,30.03,NE,48,0.0,4.0,67,0.00,,BKN001,0.00,VWS V14.00,2013-06-02 12:50:00,
2013-06-02 06:55:00,27.4,17.5,30.03,South,183,0.0,4.0,66,0.00,,BKN001,0.00,VWS V14.00,2013-06-02 12:55:00,
2013-06-02 07:00:00,29.2,18.5,30.03,SW,218,2.0,4.0,64,0.00,,BKN001,0.00,VWS V14.00,2013-06-02 13:00:00,
2013-06-02 07:05:00,30.5,18.3,30.03,SSE,159,3.0,4.0,60,0.00,,BKN001,0.00,VWS V14.00,2013-06-02 13:05:00,
2013-06-02 07:10:00,31.8,17.9,30.03,SW,217,4.0,4.0,56,0.00,,BKN001,0.00,VWS V14.00,2013-06-02 13:10:00,
2013-06-02 07:15:00,31.8,17.9,30.02,WSW,248,2.0,4.0,56,0.00,,BKN001,0.00,VWS V14.00,2013-06-02 13:15:00,
2013-06-02 07:20:00,32.2,18.3,30.02,SSW,204,3.0,4.0,56,0.00,,BKN001,0.00,VWS V14.00,2013-06-02 13:20:00,
2013-06-02 07:25:00,33.2,18.8,30.02,SE,142,3.0,4.0,55,0.00,,BKN001,0.00,VWS V14.00,2013-06-02 13:25:00,
2013-06-02 07:30:00,34.1,18.8,30.02,SE,145,3.0,4.0,53,0.00,,BKN001,0.00,VWS V14.00,2013-06-02 13:30:00,
2013-06-02 07:35:00,35.2,18.9,30.01,SSW,212,3.0,3.0,51,0.00,,BKN001,0.00,VWS V14.00,2013-06-02 13:35:00,
2013-06-02 07:40:00,36.6,18.3,30.01,South,169,3.0,6.0,47,0.00,,BKN001,0.00,VWS V14.00,2013-06-02 13:40:00,
2013-06-02 07:45:00,37.7,18.3,30.01,SSE,164,4.0,6.0,45,0.00,,BKN001,0.00,VWS V14.00,2013-06-02 13:45:00,
2013-06-02 07:50:00,38.4,17.9,30.01,South,191,3.0,6.0,43,0.00,,BKN001,0.00,VWS V14.00,2013-06-02 13:50:00,
2013-06-02 07:55:00,39.2,18.6,30.00,South,188,3.0,6.0,43,0.00,,BKN001,0.00,VWS V14.00,2013-06-02 13:55:00,
2013-06-02 08:00:00,39.9,19.8,30.00,SSW,198,3.0,6.0,44,0.00,,BKN001,0.00,VWS V14.00,2013-06-02 14:00:00,
2013-06-02 08:05:00,40.6,18.8,30.00,South,188,4.0,5.0,41,0.00,,BKN001,0.00,VWS V14.00,2013-06-02 14:05:00,
2013-06-02 08:10:00,41.4,19.5,29.99,SSE,166,3.0,5.0,41,0.00,,BKN001,0.00,VWS V14.00,2013-06-02 14:10:00,
2013-06-02 08:15:00,42.2,19.0,29.99,SSE,150,2.0,6.0,39,0.00,,BKN001,0.00,VWS V14.00,2013-06-02 14:15:00,
2013-06-02 08:20:00,42.7,18.9,29.99,SW,231,1.0,6.0,38,0.00,,BKN001,0.00,VWS V14.00,2013-06-02 14:20:00,
2013-06-02 08:25:00,43.5,19.0,29.98,SSE,166,2.0,6.0,37,0.00,,BKN001,0.00,VWS V14.00,2013-06-02 14:25:00,
2013-06-02 08:30:00,44.6,18.7,29.98,ESE,120,3.0,6.0,35,0.00,,BKN001,0.00,VWS V14.00,2013-06-02 14:30:00,
2013-06-02 08:35:00,45.1,18.4,29.98,East,98,2.0,3.0,34,0.00,,BKN001,0.00,VWS V14.00,2013-06-02 14:35:00,
2013-06-02 08:40:00,45.5,18.8,29.97,SSE,155,2.0,4.0,34,0.00,,BKN001,0.00,VWS V14.00,2013-06-02 14:40:00,
2013-06-02 08:45:00,46.1,18.6,29.97,SW,232,3.0,4.0,33,0.00,,BKN001,0.00,VWS V14.00,2013-06-02 14:45:00,
2013-06-02 08:50:00,46.1,17.9,29.97,WSW,240,1.0,5.0,32,0.00,,BKN001,0.00,VWS V14.00,2013-06-02 14:50:00,
2013-06-02 08:55:00,46.2,18.0,29.97,SW,232,2.0,5.0,32,0.00,,BKN001,0.00,VWS V14.00,2013-06-02 14:55:00,
2013-06-02 09:00:00,46.5,18.2,29.96,West,264,2.0,5.0,32,0.00,,BKN001,0.00,VWS V14.00,2013-06-02 15:00:00,
2013-06-02 09:05:00,47.2,18.9,29.96,WSW,249,3.0,4.0,32,0.00,,BKN001,0.00,VWS V14.00,2013-06-02 15:05:00,
2013-06-02 09:10:00,47.5,18.4,29.95,WNW,285,0.0,4.0,31,0.00,,BKN001,0.00,VWS V14.00,2013-06-02 15:10:00,
2013-06-02 09:15:00,48.8,18.0,29.95,WSW,243,0.0,4.0,29,0.00,,BKN001,0.00,VWS V14.00,2013-06-02 15:15:00,
2013-06-02 09:20:00,50.8,18.9,29.95,WSW,243,1.0,4.0,28,0.00,,BKN001,0.00,VWS V14.00,2013-06-02 15:20:00,
2013-06-02 09:25:00,51.9,19.0,29.94,SE,139,1.0,4.0,27,0.00,,BKN001,0.00,VWS V14.00,2013-06-02 15:25:00,
2013-06-02 09:30:00,52.4,19.4,29.93,NE,51,5.0,6.0,27,0.00,,BKN001,0.00,VWS V14.00,2013-06-02 15:30:00,
2013-06-02 09:35:00,53.0,19.9,29.93,North,11,1.0,4.0,27,0.00,,BKN001,0.00,VWS V14.00,2013-06-02 15:35:00,
2013-06-02 09:40:00,53.2,19.2,29.93,NW,319,1.0,6.0,26,0.00,,BKN001,0.00,VWS V14.00,2013-06-02 15:40:00,
2013-06-02 09:45:00,54.0,19.9,29.92,NNE,19,3.0,7.0,26,0.00,,BKN001,0.00,VWS V14.00,2013-06-02 15:45:00,
2013-06-02 09:50:00,54.4,19.3,29.92,WNW,288,1.0,7.0,25,0.00,,BKN001,0.00,VWS V14.00,2013-06-02 15:50:00,
2013-06-02 09:55:00,54.6,19.5,29.91,NNW,328,2.0,7.0,25,0.00,,BKN001,0.00,VWS V14.00,2013-06-02 15:55:00,
2013-06-02 10:00:00,55.2,19.1,29.91,NNE,24,3.0,7.0,24,0.00,,BKN001,0.00,VWS V14.00,2013-06-02 16:00:00,
2013-06-02 10:05:00,56.7,20.3,29.90,NE,39,2.0,8.0,24,0.00,,BKN001,0.00,VWS V14.00,2013-06-02 16:05:00,
2013-06-02 10:10:00,57.3,19.8,29.90,NNW,341,5.0,8.0,23,0.00,,BKN001,0.00,VWS V14.00,2013-06-02 16:10:00,
2013-06-02 10:15:00,58.0,19.4,29.90,NNW,345,5.0,8.0,22,0.00,,BKN001,0.00,VWS V14.00,2013-06-02 16:15:00,
2013-06-02 10:20:00,59.1,20.3,29.89,NW,314,5.0,9.0,22,0.00,,BKN001,0.00,VWS V14.00,2013-06-02 16:20:00,
2013-06-02 10:25:00,59.6,19.6,29.89,North,1,3.0,9.0,21,0.00,,BKN001,0.00,VWS V14.00,2013-06-02 16:25:00,
2013-06-02 10:30:00,60.5,21.5,29.88,North,356,2.0,9.0,22,0.00,,BKN001,0.00,VWS V14.00,2013-06-02 16:30:00,
2013-06-02 10:35:00,61.0,19.7,29.88,NW,325,4.0,7.0,20,0.00,,BKN001,0.00,VWS V14.00,2013-06-02 16:35:00,
2013-06-02 10:40:00,62.3,20.8,29.88,SSW,194,2.0,8.0,20,0.00,,BKN001,0.00,VWS V14.00,2013-06-02 16:40:00,
2013-06-02 10:45:00,64.1,19.8,29.87,SW,228,9.0,10.0,18,0.00,,BKN001,0.00,VWS V14.00,2013-06-02 16:45:00,
2013-06-02 10:50:00,64.7,20.2,29.87,South,182,7.0,10.0,18,0.00,,BKN001,0.00,VWS V14.00,2013-06-02 16:50:00,
2013-06-02 10:55:00,65.2,17.9,29.87,SW,223,5.0,10.0,16,0.00,,BKN001,0.00,VWS V14.00,2013-06-02 16:55:00,
2013-06-02 11:00:00,65.7,19.7,29.86,SW,225,5.0,12.0,17,0.00,,BKN001,0.00,VWS V14.00,2013-06-02 17:00:00,
2013-06-02 11:05:00,66.6,17.5,29.86,South,169,7.0,12.0,15,0.00,,BKN001,0.00,VWS V14.00,2013-06-02 17:05:00,
2013-06-02 11:10:00,66.6,20.5,29.86,SE,141,9.0,12.0,17,0.00,,BKN001,0.00,VWS V14.00,2013-06-02 17:10:00,
2013-06-02 11:15:00,66.6,17.5,29.85,West,264,1.0,12.0,15,0.00,,BKN001,0.00,VWS V14.00,2013-06-02 17:15:00,
2013-06-02 11:20:00,66.8,17.7,29.85,SW,223,9.0,14.0,15,0.00,,BKN001,0.00,VWS V14.00,2013-06-02 17:20:00,
2013-06-02 11:25:00,66.7,19.1,29.85,SSE,165,8.0,14.0,16,0.00,,BKN001,0.00,VWS V14.00,2013-06-02 17:25:00,
2013-06-02 11:30:00,66.4,17.4,29.85,SSE,150,8.0,14.0,15,0.00,,BKN001,0.00,VWS V14.00,2013-06-02 17:30:00,
2013-06-02 11:35:00,66.2,18.7,29.84,SSE,159,8.0,13.0,16,0.00,,BKN001,0.00,VWS V14.00,2013-06-02 17:35:00,
2013-06-02 11:40:00,67.1,19.4,29.84,South,179,9.0,15.0,16,0.00,,BKN001,0.00,VWS V14.00,2013-06-02 17:40:00,
2013-06-02 11:45:00,67.1,19.4,29.83,South,178,7.0,15.0,16,0.00,,BKN001,0.00,VWS V14.00,2013-06-02 17:45:00,
2013-06-02 11:50:00,66.5,20.4,29.83,SSE,150,10.0,15.0,17,0.00,,BKN001,0.00,VWS V14.00,2013-06-02 17:50:00,
2013-06-02 11:55:00,66.4,21.6,29.83,SSW,198,11.0,17.0,18,0.00,,BKN001,0.00,VWS V14.00,2013-06-02 17:55:00,
2013-06-02 12:00:00,67.4,22.5,29.83,SSW,201,7.0,17.0,18,0.00,,BKN001,0.00,VWS V14.00,2013-06-02 18:00:00,
2013-06-02 12:05:00,68.4,21.9,29.82,South,188,15.0,16.0,17,0.00,,BKN001,0.00,VWS V14.00,2013-06-02 18:05:00,
2013-06-02 12:10:00,68.3,21.8,29.82,South,187,9.0,17.0,17,0.00,,BKN001,0.00,VWS V14.00,2013-06-02 18:10:00,
2013-06-02 12:15:00,67.7,21.4,29.82,South,169,18.0,20.0,17,0.00,,BKN001,0.00,VWS V14.00,2013-06-02 18:15:00,
2013-06-02 12:20:00,67.1,22.2,29.81,SSW,200,16.0,20.0,18,0.00,,BKN001,0.00,VWS V14.00,2013-06-02 18:20:00,
2013-06-02 12:25:00,66.9,22.0,29.81,SSE,167,17.0,20.0,18,0.00,,BKN001,0.00,VWS V14.00,2013-06-02 18:25:00,
2013-06-02 12:30:00,66.9,22.0,29.81,SSW,210,12.0,22.0,18,0.00,,BKN001,0.00,VWS V14.00,2013-06-02 18:30:00,
2013-06-02 12:35:00,67.3,22.4,29.81,SSE,158,12.0,19.0,18,0.00,,BKN001,0.00,VWS V14.00,2013-06-02 18:35:00,
2013-06-02 12:40:00,67.2,22.3,29.81,South,183,14.0,21.0,18,0.00,,BKN001,0.00,VWS V14.00,2013-06-02 18:40:00,
2013-06-02 12:45:00,67.3,22.4,29.80,South,170,12.0,21.0,18,0.00,,BKN001,0.00,VWS V14.00,2013-06-02 18:45:00,
2013-06-02 12:50:00,67.4,22.5,29.80,South,184,11.0,21.0,18,0.00,,BKN001,0.00,VWS V14.00,2013-06-02 18:50:00,
2013-06-02 12:55:00,67.2,22.3,29.80,SSE,158,16.0,21.0,18,0.00,,BKN001,0.00,VWS V14.00,2013-06-02 18:55:00,
2013-06-02 13:00:00,68.0,21.6,29.80,SSE,154,11.0,21.0,17,0.00,,BKN001,0.00,VWS V14.00,2013-06-02 19:00:00,
2013-06-02 13:05:00,68.2,21.8,29.80,SSE,167,13.0,23.0,17,0.00,,BKN001,0.00,VWS V14.00,2013-06-02 19:05:00,
2013-06-02 13:10:00,68.6,22.1,29.79,SSE,159,13.0,23.0,17,0.00,,BKN001,0.00,VWS V14.00,2013-06-02 19:10:00,
2013-06-02 13:15:00,68.9,19.4,29.79,South,186,8.0,23.0,15,0.00,,BKN001,0.00,VWS V14.00,2013-06-02 19:15:00,
2013-06-02 13:20:00,69.6,18.3,29.79,SSW,193,15.0,23.0,14,0.00,,BKN001,0.00,VWS V14.00,2013-06-02 19:20:00,
2013-06-02 13:25:00,69.4,18.2,29.79,WSW,245,11.0,23.0,14,0.00,,BKN001,0.00,VWS V14.00,2013-06-02 19:25:00,
2013-06-02 13:30:00,69.0,16.1,29.78,WNW,296,9.0,23.0,13,0.00,,BKN001,0.00,VWS V14.00,2013-06-02 19:30:00,
2013-06-02 13:35:00,69.1,14.4,29.78,ENE,72,8.0,23.0,12,0.00,,BKN001,0.00,VWS V14.00,2013-06-02 19:35:00,
2013-06-02 13:40:00,69.3,16.4,29.78,SSE,156,8.0,23.0,13,0.00,,BKN001,0.00,VWS V14.00,2013-06-02 19:40:00,
2013-06-02 13:45:00,69.8,16.8,29.77,SE,139,14.0,23.0,13,0.00,,BKN001,0.00,VWS V14.00,2013-06-02 19:45:00,
2013-06-02 13:50:00,70.3,13.3,29.77,SE,129,6.0,23.0,11,0.00,,BKN001,0.00,VWS V14.00,2013-06-02 19:50:00,
2013-06-02 13:55:00,70.7,13.6,29.77,East,94,9.0,32.0,11,0.00,,BKN001,0.00,VWS V14.00,2013-06-02 19:55:00,
2013-06-02 14:00:00,70.9,13.8,29.77,SW,225,12.0,32.0,11,0.00,,BKN001,0.00,VWS V14.00,2013-06-02 20:00:00,
2013-06-02 14:05:00,71.1,14.0,29.77,SW,236,13.0,17.0,11,0.00,,BKN001,0.00,VWS V14.00,2013-06-02 20:05:00,
2013-06-02 14:10:00,71.3,16.1,29.76,SSW,205,10.0,24.0,12,0.00,,BKN001,0.00,VWS V14.00,2013-06-02 20:10:00,
2013-06-02 14:15:00,72.3,16.9,29.76,SSE,159,6.0,24.0,12,0.00,,BKN001,0.00,VWS V14.00,2013-06-02 20:15:00,
2013-06-02 14:20:00,72.2,14.8,29.76,WSW,240,7.0,24.0,11,0.00,,BKN001,0.00,VWS V14.00,2013-06-02 20:20:00,
2013-06-02 14:25:00,70.9,17.6,29.76,SW,225,11.0,24.0,13,0.00,,BKN001,0.00,VWS V14.00,2013-06-02 20:25:00,
2013-06-02 14:30:00,70.7,22.3,29.75,SSE,155,7.0,24.0,16,0.00,,BKN001,0.00,VWS V14.00,2013-06-02 20:30:00,
2013-06-02 14:35:00,70.3,20.5,29.75,SSW,206,6.0,19.0,15,0.00,,BKN001,0.00,VWS V14.00,2013-06-02 20:35:00,
2013-06-02 14:40:00,69.8,23.1,29.75,SW,225,8.0,19.0,17,0.00,,BKN001,0.00,VWS V14.00,2013-06-02 20:40:00,
2013-06-02 14:45:00,69.4,22.7,29.75,SSW,204,8.0,19.0,17,0.00,,BKN001,0.00,VWS V14.00,2013-06-02 20:45:00,
2013-06-02 14:50:00,69.0,22.4,29.75,SSE,159,6.0,19.0,17,0.00,,BKN001,0.00,VWS V14.00,2013-06-02 20:50:00,
2013-06-02 14:55:00,68.8,22.2,29.74,South,182,8.0,19.0,17,0.00,,BKN001,0.00,VWS V14.00,2013-06-02 20:55:00,
2013-06-02 15:00:00,68.8,22.2,29.74,SW,214,15.0,19.0,17,0.00,,BKN001,0.00,VWS V14.00,2013-06-02 21:00:00,
2013-06-02 15:05:00,68.9,22.3,29.74,SSW,195,12.0,20.0,17,0.00,,BKN001,0.00,VWS V14.00,2013-06-02 21:05:00,
2013-06-02 15:10:00,69.1,22.5,29.73,SW,218,17.0,20.0,17,0.00,,BKN001,0.00,VWS V14.00,2013-06-02 21:10:00,
2013-06-02 15:15:00,69.0,22.4,29.73,SSW,206,7.0,20.0,17,0.00,,BKN001,0.00,VWS V14.00,2013-06-02 21:15:00,
2013-06-02 15:20:00,69.4,24.1,29.73,SSE,167,6.0,20.0,18,0.00,,BKN001,0.00,VWS V14.00,2013-06-02 21:20:00,
2013-06-02 15:25:00,70.1,23.3,29.72,South,180,16.0,21.0,17,0.00,,BKN001,0.00,VWS V14.00,2013-06-02 21:25:00,
2013-06-02 15:30:00,69.9,23.1,29.72,South,169,10.0,21.0,17,0.00,,BKN001,0.00,VWS V14.00,2013-06-02 21:30:00,
2013-06-02 15:35:00,69.3,22.6,29.72,SSE,167,13.0,13.0,17,0.00,,BKN001,0.00,VWS V14.00,2013-06-02 21:35:00,
2013-06-02 15:40:00,69.0,23.8,29.72,WSW,245,11.0,14.0,18,0.00,,BKN001,0.00,VWS V14.00,2013-06-02 21:40:00,
2013-06-02 15:45:00,69.0,23.8,29.72,SSW,201,8.0,16.0,18,0.00,,BKN001,0.00,VWS V14.00,2013-06-02 21:45:00,
2013-06-02 15:50:00,69.6,22.9,29.71,SSE,153,13.0,18.0,17,0.00,,BKN001,0.00,VWS V14.00,2013-06-02 21:50:00,
2013-06-02 15:55:00,70.2,23.4,29.71,SW,226,17.0,20.0,17,0.00,,BKN001,0.00,VWS V14.00,2013-06-02 21:55:00,
2013-06-02 16:00:00,69.9,23.1,29.71,WSW,238,11.0,20.0,17,0.00,,BKN001,0.00,VWS V14.00,2013-06-02 22:00:00,
2013-06-02 16:05:00,69.4,22.7,29.71,SW,218,12.0,14.0,17,0.00,,BKN001,0.00,VWS V14.00,2013-06-02 22:05:00,
2013-06-02 16:10:00,69.3,22.6,29.72,SW,229,7.0,15.0,17,0.00,,BKN001,0.00,VWS V14.00,2013-06-02 22:10:00,
2013-06-02 16:15:00,70.4,22.1,29.72,SSW,195,12.0,23.0,16,0.00,,BKN001,0.00,VWS V14.00,2013-06-02 22:15:00,
2013-06-02 16:20:00,70.7,19.2,29.71,SE,128,11.0,23.0,14,0.00,,BKN001,0.00,VWS V14.00,2013-06-02 22:20:00,
2013-06-02 16:25:00,70.1,18.7,29.71,SSE,148,14.0,24.0,14,0.00,,BKN001,0.00,VWS V14.00,2013-06-02 22:25:00,
2013-06-02 16:30:00,69.2,19.6,29.71,SW,235,16.0,24.0,15,0.00,,BKN001,0.00,VWS V14.00,2013-06-02 22:30:00,
2013-06-02 16:35:00,68.4,19.0,29.72,WNW,285,12.0,23.0,15,0.00,,BKN001,0.00,VWS V14.00,2013-06-02 22:35:00,
2013-06-02 16:40:00,68.0,20.2,29.72,SW,234,7.0,24.0,16,0.00,,BKN001,0.00,VWS V14.00,2013-06-02 22:40:00,
2013-06-02 16:45:00,68.0,20.2,29.72,SSW,205,7.0,24.0,16,0.00,,BKN001,0.00,VWS V14.00,2013-06-02 22:45:00,
2013-06-02 16:50:00,68.2,23.1,29.71,NW,315,16.0,24.0,18,0.00,,BKN001,0.00,VWS V14.00,2013-06-02 22:50:00,
2013-06-02 16:55:00,67.9,25.4,29.72,NW,322,10.0,24.0,20,0.00,,BKN001,0.00,VWS V14.00,2013-06-02 22:55:00,
2013-06-02 17:00:00,67.5,25.0,29.72,NW,316,10.0,27.0,20,0.00,,BKN001,0.00,VWS V14.00,2013-06-02 23:00:00,
2013-06-02 17:05:00,68.0,24.2,29.71,NNW,339,4.0,19.0,19,0.00,,BKN001,0.00,VWS V14.00,2013-06-02 23:05:00,
2013-06-02 17:10:00,67.7,24.0,29.71,NNE,18,3.0,20.0,19,0.00,,BKN001,0.00,VWS V14.00,2013-06-02 23:10:00,
2013-06-02 17:15:00,67.5,23.8,29.71,NW,311,10.0,20.0,19,0.00,,BKN001,0.00,VWS V14.00,2013-06-02 23:15:00,
2013-06-02 17:20:00,67.7,24.0,29.71,NW,323,6.0,20.0,19,0.00,,BKN001,0.00,VWS V14.00,2013-06-02 23:20:00,
2013-06-02 17:25:00,66.9,24.5,29.72,WNW,290,17.0,22.0,20,0.00,,BKN001,0.00,VWS V14.00,2013-06-02 23:25:00,
2013-06-02 17:30:00,66.6,23.1,29.71,NNW,332,10.0,22.0,19,0.00,,BKN001,0.00,VWS V14.00,2013-06-02 23:30:00,
2013-06-02 17:35:00,66.5,23.0,29.71,NW,304,5.0,18.0,19,0.00,,BKN001,0.00,VWS V14.00,2013-06-02 23:35:00,
2013-06-02 17:40:00,67.5,23.8,29.71,NW,322,6.0,18.0,19,0.00,,BKN001,0.00,VWS V14.00,2013-06-02 23:40:00,
2013-06-02 17:45:00,67.2,23.6,29.70,NW,325,11.0,25.0,19,0.00,,BKN001,0.00,VWS V14.00,2013-06-02 23:45:00,
2013-06-02 17:50:00,67.0,23.4,29.70,WNW,300,9.0,25.0,19,0.00,,BKN001,0.00,VWS V14.00,2013-06-02 23:50:00,
2013-06-02 17:55:00,66.9,23.3,29.70,NW,316,9.0,25.0,19,0.00,,BKN001,0.00,VWS V14.00,2013-06-02 23:55:00,
2013-06-02 18:00:00,66.7,23.2,29.70,NNW,336,3.0,25.0,19,0.00,,BKN001,0.00,VWS V14.00,2013-06-03 00:00:00,
2013-06-02 18:05:00,66.8,24.5,29.71,SSE,150,4.0,9.0,20,0.00,,BKN001,0.00,VWS V14.00,2013-06-03 00:05:00,
2013-06-02 18:10:00,66.9,24.5,29.71,NW,315,16.0,16.0,20,0.00,,BKN001,0.00,VWS V14.00,2013-06-03 00:10:00,
2013-06-02 18:15:00,66.6,25.5,29.71,NW,314,7.0,16.0,21,0.00,,BKN001,0.00,VWS V14.00,2013-06-03 00:15:00,
2013-06-02 18:20:00,66.3,25.2,29.70,NW,311,9.0,16.0,21,0.00,,BKN001,0.00,VWS V14.00,2013-06-03 00:20:00,
2013-06-02 18:25:00,65.9,24.9,29.70,WNW,296,9.0,16.0,21,0.00,,BKN001,0.00,VWS V14.00,2013-06-03 00:25:00,
2013-06-02 18:30:00,65.7,24.7,29.70,WNW,303,3.0,16.0,21,0.00,,BKN001,0.00,VWS V14.00,2013-06-03 00:30:00,
2013-06-02 18:35:00,65.4,25.6,29.70,NW,312,5.0,12.0,22,0.00,,BKN001,0.00,VWS V14.00,2013-06-03 00:35:00,
2013-06-02 18:40:00,65.1,25.3,29.70,NNW,328,3.0,17.0,22,0.00,,BKN001,0.00,VWS V14.00,2013-06-03 00:40:00,
2013-06-02 18:45:00,64.9,25.2,29.70,NW,314,4.0,17.0,22,0.00,,BKN001,0.00,VWS V14.00,2013-06-03 00:45:00,
2013-06-02 18:50:00,64.9,25.2,29.70,NW,324,8.0,17.0,22,0.00,,BKN001,0.00,VWS V14.00,2013-06-03 00:50:00,
2013-06-02 18:55:00,65.0,25.3,29.70,WNW,294,2.0,17.0,22,0.00,,BKN001,0.00,VWS V14.00,2013-06-03 00:55:00,
2013-06-02 19:00:00,65.3,25.5,29.70,North,1,2.0,17.0,22,0.00,,BKN001,0.00,VWS V14.00,2013-06-03 01:00:00,
2013-06-02 19:05:00,65.4,24.5,29.70,NE,44,3.0,3.0,21,0.00,,BKN001,0.00,VWS V14.00,2013-06-03 01:05:00,
2013-06-02 19:10:00,65.1,24.2,29.70,ENE,61,2.0,4.0,21,0.00,,BKN001,0.00,VWS V14.00,2013-06-03 01:10:00,
2013-06-02 19:15:00,65.0,25.3,29.70,ESE,103,3.0,4.0,22,0.00,,BKN001,0.00,VWS V14.00,2013-06-03 01:15:00,
2013-06-02 19:20:00,64.9,25.2,29.70,East,98,0.0,4.0,22,0.00,,BKN001,0.00,VWS V14.00,2013-06-03 01:20:00,
2013-06-02 19:25:00,64.7,25.0,29.70,East,98,0.0,4.0,22,0.00,,BKN001,0.00,VWS V14.00,2013-06-03 01:25:00,
2013-06-02 19:30:00,64.3,24.7,29.71,SW,230,1.0,4.0,22,0.00,,BKN001,0.00,VWS V14.00,2013-06-03 01:30:00,
2013-06-02 19:35:00,63.9,27.4,29.70,WNW,283,3.0,3.0,25,0.00,,BKN001,0.00,VWS V14.00,2013-06-03 01:35:00,
2013-06-02 19:40:00,63.0,26.6,29.71,West,276,1.0,3.0,25,0.00,,BKN001,0.00,VWS V14.00,2013-06-03 01:40:00,
2013-06-02 19:45:00,62.6,26.3,29.71,WSW,256,0.0,3.0,25,0.00,,BKN001,0.00,VWS V14.00,2013-06-03 01:45:00,
2013-06-02 19:50:00,62.2,26.9,29.71,NE,52,2.0,3.0,26,0.00,,BKN001,0.00,VWS V14.00,2013-06-03 01:50:00,
2013-06-02 19:55:00,61.3,26.1,29.71,ENE,69,4.0,4.0,26,0.00,,BKN001,0.00,VWS V14.00,2013-06-03 01:55:00,
2013-06-02 20:00:00,60.4,27.2,29.71,ENE,76,5.0,6.0,28,0.00,,BKN001,0.00,VWS V14.00,2013-06-03 02:00:00,
2013-06-02 20:05:00,59.8,25.8,29.72,SSE,156,1.0,3.0,27,0.00,,BKN001,0.00,VWS V14.00,2013-06-03 02:05:00,
2013-06-02 20:10:00,59.1,26.0,29.72,East,101,4.0,4.0,28,0.00,,BKN001,0.00,VWS V14.00,2013-06-03 02:10:00,
2013-06-02 20:15:00,59.3,26.2,29.71,ENE,67,4.0,5.0,28,0.00,,BKN001,0.00,VWS V14.00,2013-06-03 02:15:00,
2013-06-02 20:20:00,58.3,25.4,29.71,SE,140,4.0,6.0,28,0.00,,BKN001,0.00,VWS V14.00,2013-06-03 02:20:00,
2013-06-02 20:25:00,59.2,25.3,29.71,ENE,70,4.0,6.0,27,0.00,,BKN001,0.00,VWS V14.00,2013-06-03 02:25:00,
2013-06-02 20:30:00,59.1,25.2,29.71,ESE,112,3.0,6.0,27,0.00,,BKN001,0.00,VWS V14.00,2013-06-03 02:30:00,
2013-06-02 20:35:00,57.4,26.2,29.71,WNW,290,2.0,4.0,30,0.00,,BKN001,0.00,VWS V14.00,2013-06-03 02:35:00,
2013-06-02 20:40:00,56.8,26.5,29.72,SW,231,2.0,4.0,31,0.00,,BKN001,0.00,VWS V14.00,2013-06-03 02:40:00,
2013-06-02 20:45:00,55.7,25.5,29.72,South,174,3.0,4.0,31,0.00,,BKN001,0.00,VWS V14.00,2013-06-03 02:45:00,
2013-06-02 20:50:00,55.3,26.0,29.73,ESE,115,1.0,4.0,32,0.00,,BKN001,0.00,VWS V14.00,2013-06-03 02:50:00,
2013-06-02 20:55:00,54.7,25.4,29.73,ESE,112,1.0,4.0,32,0.00,,BKN001,0.00,VWS V14.00,2013-06-03 02:55:00,
2013-06-02 21:00:00,54.9,24.9,29.74,SW,235,0.0,4.0,31,0.00,,BKN001,0.00,VWS V14.00,2013-06-03 03:00:00,
2013-06-02 21:05:00,54.6,24.6,29.74,SW,235,0.0,0.0,31,0.00,,BKN001,0.00,VWS V14.00,2013-06-03 03:05:00,
2013-06-02 21:10:00,54.1,24.9,29.74,West,274,1.0,2.0,32,0.00,,BKN001,0.00,VWS V14.00,2013-06-03 03:10:00,
2013-06-02 21:15:00,53.9,25.5,29.75,West,268,0.0,2.0,33,0.00,,BKN001,0.00,VWS V14.00,2013-06-03 03:15:00,
2013-06-02 21:20:00,54.0,24.8,29.75,SE,136,0.0,3.0,32,0.00,,BKN001,0.00,VWS V14.00,2013-06-03 03:20:00,
2013-06-02 21:25:00,54.6,25.4,29.76,West,263,1.0,3.0,32,0.00,,BKN001,0.00,VWS V14.00,2013-06-03 03:25:00,
2013-06-02 21:30:00,55.2,25.9,29.76,West,281,0.0,3.0,32,0.00,,BKN001,0.00,VWS V14.00,2013-06-03 03:30:00,
2013-06-02 21:35:00,55.0,25.7,29.76,WSW,237,1.0,1.0,32,0.00,,BKN001,0.00,VWS V14.00,2013-06-03 03:35:00,
2013-06-02 21:40:00,55.2,25.9,29.76,West,274,1.0,4.0,32,0.00,,BKN001,0.00,VWS V14.00,2013-06-03 03:40:00,
2013-06-02 21:45:00,56.7,26.4,29.76,West,274,4.0,12.0,31,0.00,,BKN001,0.00,VWS V14.00,2013-06-03 03:45:00,
2013-06-02 21:50:00,57.2,26.1,29.77,SW,221,2.0,12.0,30,0.00,,BKN001,0.00,VWS V14.00,2013-06-03 03:50:00,
2013-06-02 21:55:00,56.8,25.7,29.77,WSW,243,4.0,12.0,30,0.00,,BKN001,0.00,VWS V14.00,2013-06-03 03:55:00,
2013-06-02 22:00:00,56.1,25.9,29.77,SW,235,1.0,12.0,31,0.00,,BKN001,0.00,VWS V14.00,2013-06-03 04:00:00,
2013-06-02 22:01:00,55.9,25.7,29.77,SW,235,3.0,12.0,31,0.00,,BKN001,0.00,VWS V14.00,2013-06-03 04:01:00,
2013-06-02 22:07:00,55.2,25.9,29.77,WSW,240,5.0,7.0,32,0.00,,BKN001,0.00,VWS V14.00,2013-06-03 04:07:00,
2013-06-02 22:12:00,55.0,26.5,29.78,WSW,246,3.0,7.0,33,0.00,,BKN001,0.00,VWS V14.00,2013-06-03 04:12:00,
2013-06-02 22:17:00,54.7,26.2,29.77,SW,235,6.0,8.0,33,0.00,,BKN001,0.00,VWS V14.00,2013-06-03 04:17:00,
2013-06-02 22:22:00,54.2,26.5,29.78,WSW,238,2.0,8.0,34,0.00,,BKN001,0.00,VWS V14.00,2013-06-03 04:22:00,
2013-06-02 22:27:00,53.3,26.4,29.78,WSW,245,1.0,8.0,35,0.00,,BKN001,0.00,VWS V14.00,2013-06-03 04:27:00,
2013-06-02 22:32:00,52.6,25.8,29.78,ESE,110,2.0,8.0,35,0.00,,BKN001,0.00,VWS V14.00,2013-06-03 04:32:00,
2013-06-02 22:37:00,52.6,25.8,29.78,SE,132,2.0,4.0,35,0.00,,BKN001,0.00,VWS V14.00,2013-06-03 04:37:00,
2013-06-02 22:42:00,52.4,26.2,29.78,SW,218,0.0,4.0,36,0.00,,BKN001,0.00,VWS V14.00,2013-06-03 04:42:00,
2013-06-02 22:47:00,51.8,26.4,29.78,West,270,1.0,4.0,37,0.00,,BKN001,0.00,VWS V14.00,2013-06-03 04:47:00,
2013-06-02 22:52:00,51.1,25.8,29.77,West,270,0.0,4.0,37,0.00,,BKN001,0.00,VWS V14.00,2013-06-03 04:52:00,
2013-06-02 22:57:00,50.3,25.7,29.78,West,270,0.0,4.0,38,0.00,,BKN001,0.00,VWS V14.00,2013-06-03 04:57:00,
2013-06-02 23:02:00,49.5,26.2,29.78,West,271,1.0,4.0,40,0.00,,BKN001,0.00,VWS V14.00,2013-06-03 05:02:00,
2013-06-02 23:07:00,49.1,25.8,29.78,West,271,0.0,1.0,40,0.00,,BKN001,0.00,VWS V14.00,2013-06-03 05:07:00,
2013-06-02 23:12:00,48.5,25.9,29.78,ESE,120,0.0,2.0,41,0.00,,BKN001,0.00,VWS V14.00,2013-06-03 05:12:00,
2013-06-02 23:17:00,48.2,25.6,29.78,ESE,120,0.0,2.0,41,0.00,,BKN001,0.00,VWS V14.00,2013-06-03 05:17:00,
2013-06-02 23:22:00,47.7,25.8,29.78,ESE,120,0.0,2.0,42,0.00,,BKN001,0.00,VWS V14.00,2013-06-03 05:22:00,
2013-06-02 23:27:00,46.9,26.7,29.78,ESE,120,0.0,2.0,45,0.00,,BKN001,0.00,VWS V14.00,2013-06-03 05:27:00,
2013-06-02 23:32:00,47.0,27.3,29.78,ESE,111,1.0,2.0,46,0.00,,BKN001,0.00,VWS V14.00,2013-06-03 05:32:00,
2013-06-02 23:37:00,48.0,26.6,29.78,ESE,105,2.0,3.0,43,0.00,,BKN001,0.00,VWS V14.00,2013-06-03 05:37:00,
2013-06-02 23:42:00,48.0,26.0,29.78,East,96,4.0,4.0,42,0.00,,BKN001,0.00,VWS V14.00,2013-06-03 05:42:00,
2013-06-02 23:47:00,47.4,25.5,29.77,North,349,1.0,4.0,42,0.00,,BKN001,0.00,VWS V14.00,2013-06-03 05:47:00,
2013-06-02 23:52:00,46.3,25.6,29.77,NE,56,0.0,4.0,44,0.00,,BKN001,0.00,VWS V14.00,2013-06-03 05:52:00,
2013-06-02 23:57:00,46.0,25.9,29.77,NE,55,0.0,4.0,45,0.00,,BKN001,0.00,VWS V14.00,2013-06-03 05:57:00,